sensor_id;sensor_type;location;lat;lon;timestamp;temperature;humidity
76102;SHT30;64830;46.910;6.354;2023-11-19T00:00:21;10.32;85.47
76102;SHT30;64830;46.910;6.354;2023-11-19T00:02:47;10.32;85.45
76102;SHT30;64830;46.910;6.354;2023-11-19T00:05:13;10.36;85.38
76102;SHT30;64830;46.910;6.354;2023-11-19T00:07:39;10.39;85.40
76102;SHT30;64830;46.910;6.354;2023-11-19T00:10:12;10.36;85.41
76102;SHT30;64830;46.910;6.354;2023-11-19T00:12:39;10.39;85.46
76102;SHT30;64830;46.910;6.354;2023-11-19T00:15:05;10.38;85.60
76102;SHT30;64830;46.910;6.354;2023-11-19T00:17:32;10.36;85.73
76102;SHT30;64830;46.910;6.354;2023-11-19T00:19:57;10.34;85.83
76102;SHT30;64830;46.910;6.354;2023-11-19T00:22:22;10.31;85.92
76102;SHT30;64830;46.910;6.354;2023-11-19T00:24:48;10.34;85.94
76102;SHT30;64830;46.910;6.354;2023-11-19T00:27:13;10.31;86.03
76102;SHT30;64830;46.910;6.354;2023-11-19T00:29:39;10.32;86.19
76102;SHT30;64830;46.910;6.354;2023-11-19T00:32:04;10.32;86.26
76102;SHT30;64830;46.910;6.354;2023-11-19T00:34:30;10.29;86.32
76102;SHT30;64830;46.910;6.354;2023-11-19T00:36:56;10.28;86.44
76102;SHT30;64830;46.910;6.354;2023-11-19T00:39:21;10.27;86.50
76102;SHT30;64830;46.910;6.354;2023-11-19T00:41:47;10.25;86.50
76102;SHT30;64830;46.910;6.354;2023-11-19T00:44:13;10.27;86.49
76102;SHT30;64830;46.910;6.354;2023-11-19T00:46:39;10.25;86.51
76102;SHT30;64830;46.910;6.354;2023-11-19T00:49:04;10.24;86.60
76102;SHT30;64830;46.910;6.354;2023-11-19T00:51:30;10.24;86.57
76102;SHT30;64830;46.910;6.354;2023-11-19T00:53:57;10.24;86.44
76102;SHT30;64830;46.910;6.354;2023-11-19T00:56:22;10.25;86.49
76102;SHT30;64830;46.910;6.354;2023-11-19T00:58:48;10.25;86.46
76102;SHT30;64830;46.910;6.354;2023-11-19T01:01:13;10.25;86.41
76102;SHT30;64830;46.910;6.354;2023-11-19T01:03:39;10.25;86.42
76102;SHT30;64830;46.910;6.354;2023-11-19T01:06:05;10.27;86.39
76102;SHT30;64830;46.910;6.354;2023-11-19T01:08:30;10.27;86.34
76102;SHT30;64830;46.910;6.354;2023-11-19T01:10:55;10.28;86.28
76102;SHT30;64830;46.910;6.354;2023-11-19T01:13:21;10.29;86.21
76102;SHT30;64830;46.910;6.354;2023-11-19T01:15:48;10.29;86.23
76102;SHT30;64830;46.910;6.354;2023-11-19T01:18:13;10.32;86.16
76102;SHT30;64830;46.910;6.354;2023-11-19T01:20:38;10.35;86.10
76102;SHT30;64830;46.910;6.354;2023-11-19T01:23:04;10.34;86.11
76102;SHT30;64830;46.910;6.354;2023-11-19T01:25:30;10.35;86.01
76102;SHT30;64830;46.910;6.354;2023-11-19T01:27:55;10.36;86.00
76102;SHT30;64830;46.910;6.354;2023-11-19T01:30:24;10.38;85.98
76102;SHT30;64830;46.910;6.354;2023-11-19T01:32:49;10.38;85.81
76102;SHT30;64830;46.910;6.354;2023-11-19T01:35:15;10.42;85.72
76102;SHT30;64830;46.910;6.354;2023-11-19T01:37:40;10.44;85.67
76102;SHT30;64830;46.910;6.354;2023-11-19T01:40:06;10.44;85.63
76102;SHT30;64830;46.910;6.354;2023-11-19T01:42:40;10.45;85.52
76102;SHT30;64830;46.910;6.354;2023-11-19T01:45:06;10.48;85.53
76102;SHT30;64830;46.910;6.354;2023-11-19T01:47:33;10.48;85.53
76102;SHT30;64830;46.910;6.354;2023-11-19T01:49:59;10.49;85.39
76102;SHT30;64830;46.910;6.354;2023-11-19T01:52:26;10.49;85.44
76102;SHT30;64830;46.910;6.354;2023-11-19T01:54:53;10.50;85.32
76102;SHT30;64830;46.910;6.354;2023-11-19T01:57:21;10.48;85.32
76102;SHT30;64830;46.910;6.354;2023-11-19T01:59:49;10.46;85.36
76102;SHT30;64830;46.910;6.354;2023-11-19T02:02:16;10.48;85.37
76102;SHT30;64830;46.910;6.354;2023-11-19T02:04:46;10.48;85.37
76102;SHT30;64830;46.910;6.354;2023-11-19T02:07:13;10.49;85.42
76102;SHT30;64830;46.910;6.354;2023-11-19T02:09:42;10.46;85.41
76102;SHT30;64830;46.910;6.354;2023-11-19T02:12:08;10.46;85.40
76102;SHT30;64830;46.910;6.354;2023-11-19T02:14:34;10.42;85.36
76102;SHT30;64830;46.910;6.354;2023-11-19T02:17:00;10.44;85.49
76102;SHT30;64830;46.910;6.354;2023-11-19T02:19:25;10.42;85.48
76102;SHT30;64830;46.910;6.354;2023-11-19T02:21:50;10.42;85.48
76102;SHT30;64830;46.910;6.354;2023-11-19T02:24:19;10.42;85.53
76102;SHT30;64830;46.910;6.354;2023-11-19T02:27:04;10.42;85.58
76102;SHT30;64830;46.910;6.354;2023-11-19T02:29:33;10.41;85.61
76102;SHT30;64830;46.910;6.354;2023-11-19T02:32:00;10.41;85.67
76102;SHT30;64830;46.910;6.354;2023-11-19T02:34:28;10.41;85.80
76102;SHT30;64830;46.910;6.354;2023-11-19T02:36:54;10.41;86.03
76102;SHT30;64830;46.910;6.354;2023-11-19T02:39:19;10.39;86.05
76102;SHT30;64830;46.910;6.354;2023-11-19T02:41:47;10.36;86.17
76102;SHT30;64830;46.910;6.354;2023-11-19T02:44:14;10.36;86.32
76102;SHT30;64830;46.910;6.354;2023-11-19T02:46:40;10.38;86.32
76102;SHT30;64830;46.910;6.354;2023-11-19T02:49:07;10.39;86.42
76102;SHT30;64830;46.910;6.354;2023-11-19T02:51:33;10.38;86.49
76102;SHT30;64830;46.910;6.354;2023-11-19T02:53:59;10.39;86.59
76102;SHT30;64830;46.910;6.354;2023-11-19T02:56:25;10.38;86.66
76102;SHT30;64830;46.910;6.354;2023-11-19T02:58:52;10.35;86.70
76102;SHT30;64830;46.910;6.354;2023-11-19T03:01:24;10.35;86.78
76102;SHT30;64830;46.910;6.354;2023-11-19T03:03:56;10.32;86.73
76102;SHT30;64830;46.910;6.354;2023-11-19T03:06:23;10.35;86.85
76102;SHT30;64830;46.910;6.354;2023-11-19T03:08:48;10.38;86.80
76102;SHT30;64830;46.910;6.354;2023-11-19T03:11:14;10.34;86.84
76102;SHT30;64830;46.910;6.354;2023-11-19T03:13:40;10.35;86.86
76102;SHT30;64830;46.910;6.354;2023-11-19T03:16:05;10.35;86.86
76102;SHT30;64830;46.910;6.354;2023-11-19T03:18:31;10.34;86.99
76102;SHT30;64830;46.910;6.354;2023-11-19T03:20:57;10.34;87.07
76102;SHT30;64830;46.910;6.354;2023-11-19T03:23:24;10.31;87.20
76102;SHT30;64830;46.910;6.354;2023-11-19T03:25:50;10.32;87.22
76102;SHT30;64830;46.910;6.354;2023-11-19T03:28:15;10.29;87.36
76102;SHT30;64830;46.910;6.354;2023-11-19T03:30:41;10.29;87.34
76102;SHT30;64830;46.910;6.354;2023-11-19T03:33:06;10.31;87.40
76102;SHT30;64830;46.910;6.354;2023-11-19T03:35:31;10.31;87.34
76102;SHT30;64830;46.910;6.354;2023-11-19T03:37:58;10.31;87.39
76102;SHT30;64830;46.910;6.354;2023-11-19T03:40:23;10.32;87.50
76102;SHT30;64830;46.910;6.354;2023-11-19T03:42:50;10.34;87.49
76102;SHT30;64830;46.910;6.354;2023-11-19T03:45:16;10.31;87.52
76102;SHT30;64830;46.910;6.354;2023-11-19T03:47:41;10.32;87.55
76102;SHT30;64830;46.910;6.354;2023-11-19T03:50:07;10.28;87.56
76102;SHT30;64830;46.910;6.354;2023-11-19T03:52:33;10.34;87.52
76102;SHT30;64830;46.910;6.354;2023-11-19T03:54:59;10.35;87.82
76102;SHT30;64830;46.910;6.354;2023-11-19T03:57:24;10.34;87.82
76102;SHT30;64830;46.910;6.354;2023-11-19T03:59:49;10.32;87.82
76102;SHT30;64830;46.910;6.354;2023-11-19T04:02:15;10.34;87.98
76102;SHT30;64830;46.910;6.354;2023-11-19T04:04:41;10.34;87.94
76102;SHT30;64830;46.910;6.354;2023-11-19T04:07:06;10.34;87.95
76102;SHT30;64830;46.910;6.354;2023-11-19T04:09:32;10.36;87.91
76102;SHT30;64830;46.910;6.354;2023-11-19T04:12:03;10.38;87.93
76102;SHT30;64830;46.910;6.354;2023-11-19T04:14:28;10.36;88.00
76102;SHT30;64830;46.910;6.354;2023-11-19T04:16:54;10.36;88.09
76102;SHT30;64830;46.910;6.354;2023-11-19T04:19:19;10.39;88.26
76102;SHT30;64830;46.910;6.354;2023-11-19T04:21:45;10.36;88.60
76102;SHT30;64830;46.910;6.354;2023-11-19T04:24:11;10.38;88.85
76102;SHT30;64830;46.910;6.354;2023-11-19T04:26:40;10.32;88.83
76102;SHT30;64830;46.910;6.354;2023-11-19T04:29:07;10.31;89.17
76102;SHT30;64830;46.910;6.354;2023-11-19T04:31:33;10.28;89.45
76102;SHT30;64830;46.910;6.354;2023-11-19T04:33:59;10.28;89.60
76102;SHT30;64830;46.910;6.354;2023-11-19T04:36:25;10.27;89.39
76102;SHT30;64830;46.910;6.354;2023-11-19T04:38:51;10.29;89.23
76102;SHT30;64830;46.910;6.354;2023-11-19T04:41:16;10.32;89.19
76102;SHT30;64830;46.910;6.354;2023-11-19T04:43:41;10.31;89.12
76102;SHT30;64830;46.910;6.354;2023-11-19T04:46:09;10.32;89.12
76102;SHT30;64830;46.910;6.354;2023-11-19T04:48:35;10.34;89.05
76102;SHT30;64830;46.910;6.354;2023-11-19T04:51:00;10.32;89.03
76102;SHT30;64830;46.910;6.354;2023-11-19T04:53:25;10.36;89.03
76102;SHT30;64830;46.910;6.354;2023-11-19T04:55:51;10.34;88.99
76102;SHT30;64830;46.910;6.354;2023-11-19T04:58:16;10.34;89.27
76102;SHT30;64830;46.910;6.354;2023-11-19T05:00:41;10.39;89.12
76102;SHT30;64830;46.910;6.354;2023-11-19T05:03:07;10.36;89.22
76102;SHT30;64830;46.910;6.354;2023-11-19T05:05:33;10.35;89.10
76102;SHT30;64830;46.910;6.354;2023-11-19T05:07:58;10.36;89.17
76102;SHT30;64830;46.910;6.354;2023-11-19T05:10:24;10.39;89.05
76102;SHT30;64830;46.910;6.354;2023-11-19T05:12:50;10.38;88.99
76102;SHT30;64830;46.910;6.354;2023-11-19T05:15:16;10.41;88.93
76102;SHT30;64830;46.910;6.354;2023-11-19T05:17:42;10.42;89.02
76102;SHT30;64830;46.910;6.354;2023-11-19T05:20:07;10.42;88.92
76102;SHT30;64830;46.910;6.354;2023-11-19T05:22:42;10.44;88.94
76102;SHT30;64830;46.910;6.354;2023-11-19T05:25:08;10.44;88.93
76102;SHT30;64830;46.910;6.354;2023-11-19T05:27:36;10.44;88.97
76102;SHT30;64830;46.910;6.354;2023-11-19T05:30:03;10.48;88.96
76102;SHT30;64830;46.910;6.354;2023-11-19T05:32:29;10.49;88.95
76102;SHT30;64830;46.910;6.354;2023-11-19T05:34:54;10.52;89.03
76102;SHT30;64830;46.910;6.354;2023-11-19T05:37:19;10.50;89.01
76102;SHT30;64830;46.910;6.354;2023-11-19T05:39:45;10.53;88.98
76102;SHT30;64830;46.910;6.354;2023-11-19T05:42:10;10.53;89.00
76102;SHT30;64830;46.910;6.354;2023-11-19T05:44:36;10.55;88.98
76102;SHT30;64830;46.910;6.354;2023-11-19T05:47:03;10.53;89.03
76102;SHT30;64830;46.910;6.354;2023-11-19T05:49:28;10.56;89.01
76102;SHT30;64830;46.910;6.354;2023-11-19T05:51:54;10.53;89.18
76102;SHT30;64830;46.910;6.354;2023-11-19T05:54:21;10.52;89.15
76102;SHT30;64830;46.910;6.354;2023-11-19T05:56:49;10.52;89.15
76102;SHT30;64830;46.910;6.354;2023-11-19T05:59:15;10.53;89.17
76102;SHT30;64830;46.910;6.354;2023-11-19T06:01:43;10.52;89.29
76102;SHT30;64830;46.910;6.354;2023-11-19T06:04:09;10.50;89.26
76102;SHT30;64830;46.910;6.354;2023-11-19T06:06:35;10.49;89.21
76102;SHT30;64830;46.910;6.354;2023-11-19T06:09:01;10.49;89.49
76102;SHT30;64830;46.910;6.354;2023-11-19T06:11:27;10.49;89.28
76102;SHT30;64830;46.910;6.354;2023-11-19T06:13:52;10.49;89.44
76102;SHT30;64830;46.910;6.354;2023-11-19T06:16:18;10.50;89.30
76102;SHT30;64830;46.910;6.354;2023-11-19T06:18:43;10.50;89.40
76102;SHT30;64830;46.910;6.354;2023-11-19T06:21:10;10.48;89.37
76102;SHT30;64830;46.910;6.354;2023-11-19T06:23:35;10.46;89.52
76102;SHT30;64830;46.910;6.354;2023-11-19T06:26:00;10.48;89.38
76102;SHT30;64830;46.910;6.354;2023-11-19T06:28:26;10.49;89.85
76102;SHT30;64830;46.910;6.354;2023-11-19T06:30:51;10.48;89.70
76102;SHT30;64830;46.910;6.354;2023-11-19T06:33:17;10.49;89.55
76102;SHT30;64830;46.910;6.354;2023-11-19T06:35:42;10.50;89.53
76102;SHT30;64830;46.910;6.354;2023-11-19T06:38:07;10.52;89.48
76102;SHT30;64830;46.910;6.354;2023-11-19T06:40:34;10.53;89.38
76102;SHT30;64830;46.910;6.354;2023-11-19T06:43:03;10.52;89.42
76102;SHT30;64830;46.910;6.354;2023-11-19T06:45:29;10.52;89.36
76102;SHT30;64830;46.910;6.354;2023-11-19T06:47:54;10.53;89.42
76102;SHT30;64830;46.910;6.354;2023-11-19T06:50:20;10.55;89.37
76102;SHT30;64830;46.910;6.354;2023-11-19T06:52:46;10.56;89.37
76102;SHT30;64830;46.910;6.354;2023-11-19T06:55:11;10.57;89.53
76102;SHT30;64830;46.910;6.354;2023-11-19T06:57:37;10.53;89.45
76102;SHT30;64830;46.910;6.354;2023-11-19T07:00:03;10.56;89.44
76102;SHT30;64830;46.910;6.354;2023-11-19T07:02:30;10.56;89.39
76102;SHT30;64830;46.910;6.354;2023-11-19T07:04:56;10.60;89.35
76102;SHT30;64830;46.910;6.354;2023-11-19T07:07:21;10.59;89.38
76102;SHT30;64830;46.910;6.354;2023-11-19T07:09:46;10.60;89.38
76102;SHT30;64830;46.910;6.354;2023-11-19T07:12:13;10.62;89.36
76102;SHT30;64830;46.910;6.354;2023-11-19T07:14:39;10.65;89.29
76102;SHT30;64830;46.910;6.354;2023-11-19T07:17:05;10.65;89.26
76102;SHT30;64830;46.910;6.354;2023-11-19T07:19:31;10.66;89.27
76102;SHT30;64830;46.910;6.354;2023-11-19T07:21:56;10.66;89.23
76102;SHT30;64830;46.910;6.354;2023-11-19T07:24:22;10.66;89.24
76102;SHT30;64830;46.910;6.354;2023-11-19T07:26:47;10.65;89.23
76102;SHT30;64830;46.910;6.354;2023-11-19T07:29:13;10.69;89.25
76102;SHT30;64830;46.910;6.354;2023-11-19T07:31:40;10.65;89.22
76102;SHT30;64830;46.910;6.354;2023-11-19T07:34:05;10.67;89.22
76102;SHT30;64830;46.910;6.354;2023-11-19T07:36:31;10.73;89.25
76102;SHT30;64830;46.910;6.354;2023-11-19T07:38:58;10.70;89.23
76102;SHT30;64830;46.910;6.354;2023-11-19T07:41:23;10.73;89.26
76102;SHT30;64830;46.910;6.354;2023-11-19T07:43:50;10.76;89.23
76102;SHT30;64830;46.910;6.354;2023-11-19T07:46:17;10.77;89.26
76102;SHT30;64830;46.910;6.354;2023-11-19T07:48:44;10.79;89.25
76102;SHT30;64830;46.910;6.354;2023-11-19T07:51:12;10.81;89.23
76102;SHT30;64830;46.910;6.354;2023-11-19T07:53:38;10.84;89.24
76102;SHT30;64830;46.910;6.354;2023-11-19T07:56:04;10.84;89.20
76102;SHT30;64830;46.910;6.354;2023-11-19T07:58:29;10.85;89.22
76102;SHT30;64830;46.910;6.354;2023-11-19T08:00:55;10.89;89.22
76102;SHT30;64830;46.910;6.354;2023-11-19T08:03:20;10.90;89.19
76102;SHT30;64830;46.910;6.354;2023-11-19T08:05:47;10.93;89.21
76102;SHT30;64830;46.910;6.354;2023-11-19T08:08:13;10.93;89.17
76102;SHT30;64830;46.910;6.354;2023-11-19T08:10:38;10.96;89.25
76102;SHT30;64830;46.910;6.354;2023-11-19T08:13:05;10.97;89.39
76102;SHT30;64830;46.910;6.354;2023-11-19T08:15:31;10.97;89.42
76102;SHT30;64830;46.910;6.354;2023-11-19T08:17:56;10.96;89.58
76102;SHT30;64830;46.910;6.354;2023-11-19T08:20:22;10.97;89.54
76102;SHT30;64830;46.910;6.354;2023-11-19T08:22:48;11.01;89.54
76102;SHT30;64830;46.910;6.354;2023-11-19T08:25:14;11.03;89.75
76102;SHT30;64830;46.910;6.354;2023-11-19T08:27:39;11.03;89.62
76102;SHT30;64830;46.910;6.354;2023-11-19T08:30:06;11.04;89.62
76102;SHT30;64830;46.910;6.354;2023-11-19T08:32:32;11.06;89.55
76102;SHT30;64830;46.910;6.354;2023-11-19T08:34:58;11.03;89.47
76102;SHT30;64830;46.910;6.354;2023-11-19T08:37:23;11.06;89.55
76102;SHT30;64830;46.910;6.354;2023-11-19T08:39:49;11.07;89.54
76102;SHT30;64830;46.910;6.354;2023-11-19T08:42:16;11.08;89.80
76102;SHT30;64830;46.910;6.354;2023-11-19T08:44:42;11.04;89.75
76102;SHT30;64830;46.910;6.354;2023-11-19T08:47:12;11.06;89.76
76102;SHT30;64830;46.910;6.354;2023-11-19T08:49:39;11.07;89.75
76102;SHT30;64830;46.910;6.354;2023-11-19T08:52:05;11.07;89.87
76102;SHT30;64830;46.910;6.354;2023-11-19T08:54:32;11.07;89.89
76102;SHT30;64830;46.910;6.354;2023-11-19T08:56:58;11.07;89.91
76102;SHT30;64830;46.910;6.354;2023-11-19T08:59:24;11.07;89.95
76102;SHT30;64830;46.910;6.354;2023-11-19T09:01:50;11.07;89.88
76102;SHT30;64830;46.910;6.354;2023-11-19T09:04:15;11.08;89.93
76102;SHT30;64830;46.910;6.354;2023-11-19T09:06:41;11.11;89.98
76102;SHT30;64830;46.910;6.354;2023-11-19T09:09:08;11.11;89.98
76102;SHT30;64830;46.910;6.354;2023-11-19T09:11:33;11.11;90.28
76102;SHT30;64830;46.910;6.354;2023-11-19T09:13:58;11.10;90.26
76102;SHT30;64830;46.910;6.354;2023-11-19T09:16:24;11.07;90.31
76102;SHT30;64830;46.910;6.354;2023-11-19T09:18:50;11.07;90.42
76102;SHT30;64830;46.910;6.354;2023-11-19T09:21:16;11.06;90.30
76102;SHT30;64830;46.910;6.354;2023-11-19T09:23:41;11.06;90.35
76102;SHT30;64830;46.910;6.354;2023-11-19T09:26:08;11.06;90.25
76102;SHT30;64830;46.910;6.354;2023-11-19T09:28:33;11.10;90.26
76102;SHT30;64830;46.910;6.354;2023-11-19T09:30:59;11.08;90.21
76102;SHT30;64830;46.910;6.354;2023-11-19T09:33:24;11.10;90.25
76102;SHT30;64830;46.910;6.354;2023-11-19T09:35:50;11.10;90.15
76102;SHT30;64830;46.910;6.354;2023-11-19T09:38:16;11.08;90.34
76102;SHT30;64830;46.910;6.354;2023-11-19T09:40:42;11.06;90.30
76102;SHT30;64830;46.910;6.354;2023-11-19T09:43:07;11.08;90.23
76102;SHT30;64830;46.910;6.354;2023-11-19T09:45:48;11.12;90.19
76102;SHT30;64830;46.910;6.354;2023-11-19T09:48:18;11.17;90.14
76102;SHT30;64830;46.910;6.354;2023-11-19T09:50:46;11.17;90.15
76102;SHT30;64830;46.910;6.354;2023-11-19T09:53:12;11.19;90.10
76102;SHT30;64830;46.910;6.354;2023-11-19T09:55:37;11.19;90.11
76102;SHT30;64830;46.910;6.354;2023-11-19T09:58:03;11.19;90.13
76102;SHT30;64830;46.910;6.354;2023-11-19T10:00:29;11.19;90.09
76102;SHT30;64830;46.910;6.354;2023-11-19T10:02:55;11.21;90.12
76102;SHT30;64830;46.910;6.354;2023-11-19T10:05:23;11.24;90.13
76102;SHT30;64830;46.910;6.354;2023-11-19T10:07:49;11.24;90.14
76102;SHT30;64830;46.910;6.354;2023-11-19T10:10:15;11.25;90.13
76102;SHT30;64830;46.910;6.354;2023-11-19T10:12:45;11.25;90.11
76102;SHT30;64830;46.910;6.354;2023-11-19T10:15:20;11.25;90.23
76102;SHT30;64830;46.910;6.354;2023-11-19T10:17:47;11.25;90.22
76102;SHT30;64830;46.910;6.354;2023-11-19T10:20:12;11.25;90.28
76102;SHT30;64830;46.910;6.354;2023-11-19T10:22:38;11.25;90.22
76102;SHT30;64830;46.910;6.354;2023-11-19T10:25:22;11.27;90.24
76102;SHT30;64830;46.910;6.354;2023-11-19T10:27:49;11.27;90.33
76102;SHT30;64830;46.910;6.354;2023-11-19T10:30:20;11.27;90.44
76102;SHT30;64830;46.910;6.354;2023-11-19T10:33:11;11.25;90.41
76102;SHT30;64830;46.910;6.354;2023-11-19T10:35:55;11.19;90.32
76102;SHT30;64830;46.910;6.354;2023-11-19T10:38:24;11.19;90.41
76102;SHT30;64830;46.910;6.354;2023-11-19T10:40:50;11.19;90.39
76102;SHT30;64830;46.910;6.354;2023-11-19T10:43:17;11.25;90.37
76102;SHT30;64830;46.910;6.354;2023-11-19T10:45:43;11.25;90.35
76102;SHT30;64830;46.910;6.354;2023-11-19T10:48:09;11.28;90.36
76102;SHT30;64830;46.910;6.354;2023-11-19T10:50:36;11.25;90.37
76102;SHT30;64830;46.910;6.354;2023-11-19T10:53:03;11.28;90.32
76102;SHT30;64830;46.910;6.354;2023-11-19T10:55:36;11.31;90.29
76102;SHT30;64830;46.910;6.354;2023-11-19T10:58:08;11.29;90.40
76102;SHT30;64830;46.910;6.354;2023-11-19T11:03:16;11.32;90.32
76102;SHT30;64830;46.910;6.354;2023-11-19T11:05:42;11.31;90.30
76102;SHT30;64830;46.910;6.354;2023-11-19T11:08:08;11.31;90.39
76102;SHT30;64830;46.910;6.354;2023-11-19T11:10:48;11.32;90.49
76102;SHT30;64830;46.910;6.354;2023-11-19T11:13:17;11.32;90.45
76102;SHT30;64830;46.910;6.354;2023-11-19T11:15:44;11.34;90.40
76102;SHT30;64830;46.910;6.354;2023-11-19T11:18:12;11.34;90.49
76102;SHT30;64830;46.910;6.354;2023-11-19T11:20:38;11.35;90.50
76102;SHT30;64830;46.910;6.354;2023-11-19T11:23:19;11.39;90.47
76102;SHT30;64830;46.910;6.354;2023-11-19T11:28:57;11.53;90.34
76102;SHT30;64830;46.910;6.354;2023-11-19T11:31:51;11.56;90.27
76102;SHT30;64830;46.910;6.354;2023-11-19T11:37:36;11.56;90.23
76102;SHT30;64830;46.910;6.354;2023-11-19T11:40:03;11.56;90.20
76102;SHT30;64830;46.910;6.354;2023-11-19T11:42:36;11.56;90.34
76102;SHT30;64830;46.910;6.354;2023-11-19T11:45:08;11.56;90.35
76102;SHT30;64830;46.910;6.354;2023-11-19T11:50:09;11.58;90.27
76102;SHT30;64830;46.910;6.354;2023-11-19T11:55:35;11.59;90.39
76102;SHT30;64830;46.910;6.354;2023-11-19T11:58:10;11.58;90.26
76102;SHT30;64830;46.910;6.354;2023-11-19T12:00:39;11.58;90.23
76102;SHT30;64830;46.910;6.354;2023-11-19T12:03:06;11.53;90.42
76102;SHT30;64830;46.910;6.354;2023-11-19T12:05:32;11.52;90.48
76102;SHT30;64830;46.910;6.354;2023-11-19T12:08:05;11.52;90.48
76102;SHT30;64830;46.910;6.354;2023-11-19T12:10:47;11.53;90.55
76102;SHT30;64830;46.910;6.354;2023-11-19T12:13:14;11.56;90.52
76102;SHT30;64830;46.910;6.354;2023-11-19T12:18:28;11.59;90.42
76102;SHT30;64830;46.910;6.354;2023-11-19T12:20:54;11.55;90.54
76102;SHT30;64830;46.910;6.354;2023-11-19T12:23:19;11.58;90.37
76102;SHT30;64830;46.910;6.354;2023-11-19T12:25:45;11.59;90.35
76102;SHT30;64830;46.910;6.354;2023-11-19T12:28:17;11.58;90.39
76102;SHT30;64830;46.910;6.354;2023-11-19T12:30:43;11.56;90.44
76102;SHT30;64830;46.910;6.354;2023-11-19T12:33:13;11.56;90.39
76102;SHT30;64830;46.910;6.354;2023-11-19T12:35:43;11.56;90.38
76102;SHT30;64830;46.910;6.354;2023-11-19T12:38:22;11.59;90.38
76102;SHT30;64830;46.910;6.354;2023-11-19T12:41:04;11.65;90.28
76102;SHT30;64830;46.910;6.354;2023-11-19T12:43:30;11.65;90.20
76102;SHT30;64830;46.910;6.354;2023-11-19T12:45:56;11.66;90.16
76102;SHT30;64830;46.910;6.354;2023-11-19T12:48:21;11.62;90.11
76102;SHT30;64830;46.910;6.354;2023-11-19T12:50:54;11.61;90.22
76102;SHT30;64830;46.910;6.354;2023-11-19T12:53:20;11.65;90.20
76102;SHT30;64830;46.910;6.354;2023-11-19T12:55:46;11.62;90.20
76102;SHT30;64830;46.910;6.354;2023-11-19T12:58:36;11.66;90.16
76102;SHT30;64830;46.910;6.354;2023-11-19T13:01:08;11.67;90.16
76102;SHT30;64830;46.910;6.354;2023-11-19T13:03:36;11.69;90.18
76102;SHT30;64830;46.910;6.354;2023-11-19T13:06:08;11.70;90.21
76102;SHT30;64830;46.910;6.354;2023-11-19T13:11:03;11.69;90.19
76102;SHT30;64830;46.910;6.354;2023-11-19T13:13:29;11.70;90.15
76102;SHT30;64830;46.910;6.354;2023-11-19T13:16:04;11.74;90.18
76102;SHT30;64830;46.910;6.354;2023-11-19T13:18:30;11.79;90.15
76102;SHT30;64830;46.910;6.354;2023-11-19T13:20:56;11.80;90.17
76102;SHT30;64830;46.910;6.354;2023-11-19T13:23:22;11.79;90.15
76102;SHT30;64830;46.910;6.354;2023-11-19T13:25:48;11.80;90.13
76102;SHT30;64830;46.910;6.354;2023-11-19T13:28:14;11.79;90.14
76102;SHT30;64830;46.910;6.354;2023-11-19T13:30:39;11.77;90.07
76102;SHT30;64830;46.910;6.354;2023-11-19T13:33:05;11.79;90.15
76102;SHT30;64830;46.910;6.354;2023-11-19T13:35:30;11.83;90.16
76102;SHT30;64830;46.910;6.354;2023-11-19T13:37:55;11.83;90.06
76102;SHT30;64830;46.910;6.354;2023-11-19T13:40:21;11.87;89.99
76102;SHT30;64830;46.910;6.354;2023-11-19T13:42:47;11.87;89.92
76102;SHT30;64830;46.910;6.354;2023-11-19T13:45:14;11.86;89.99
76102;SHT30;64830;46.910;6.354;2023-11-19T13:47:41;11.91;89.93
76102;SHT30;64830;46.910;6.354;2023-11-19T13:50:11;11.91;89.95
76102;SHT30;64830;46.910;6.354;2023-11-19T13:52:41;11.95;89.86
76102;SHT30;64830;46.910;6.354;2023-11-19T13:55:09;11.93;89.82
76102;SHT30;64830;46.910;6.354;2023-11-19T13:57:35;11.87;89.92
76102;SHT30;64830;46.910;6.354;2023-11-19T14:00:02;11.79;89.97
76102;SHT30;64830;46.910;6.354;2023-11-19T14:02:31;11.81;90.13
76102;SHT30;64830;46.910;6.354;2023-11-19T14:04:57;11.81;90.02
76102;SHT30;64830;46.910;6.354;2023-11-19T14:07:22;11.81;89.99
76102;SHT30;64830;46.910;6.354;2023-11-19T14:09:48;11.84;89.98
76102;SHT30;64830;46.910;6.354;2023-11-19T14:12:13;11.83;90.02
76102;SHT30;64830;46.910;6.354;2023-11-19T14:14:38;11.81;89.84
76102;SHT30;64830;46.910;6.354;2023-11-19T14:17:04;11.79;89.90
76102;SHT30;64830;46.910;6.354;2023-11-19T14:19:30;11.76;89.93
76102;SHT30;64830;46.910;6.354;2023-11-19T14:21:55;11.74;89.95
76102;SHT30;64830;46.910;6.354;2023-11-19T14:24:21;11.74;89.95
76102;SHT30;64830;46.910;6.354;2023-11-19T14:26:47;11.76;90.11
76102;SHT30;64830;46.910;6.354;2023-11-19T14:29:14;11.79;90.07
76102;SHT30;64830;46.910;6.354;2023-11-19T14:31:40;11.83;90.10
76102;SHT30;64830;46.910;6.354;2023-11-19T14:34:06;11.83;90.05
76102;SHT30;64830;46.910;6.354;2023-11-19T14:36:31;11.77;90.04
76102;SHT30;64830;46.910;6.354;2023-11-19T14:38:56;11.77;90.11
76102;SHT30;64830;46.910;6.354;2023-11-19T14:41:24;11.79;90.06
76102;SHT30;64830;46.910;6.354;2023-11-19T14:43:49;11.81;90.11
76102;SHT30;64830;46.910;6.354;2023-11-19T14:46:15;11.81;90.18
76102;SHT30;64830;46.910;6.354;2023-11-19T14:48:40;11.86;90.11
76102;SHT30;64830;46.910;6.354;2023-11-19T14:51:06;11.81;90.07
76102;SHT30;64830;46.910;6.354;2023-11-19T14:53:32;11.79;90.06
76102;SHT30;64830;46.910;6.354;2023-11-19T14:55:58;11.76;90.11
76102;SHT30;64830;46.910;6.354;2023-11-19T14:58:23;11.72;90.13
76102;SHT30;64830;46.910;6.354;2023-11-19T15:00:51;11.70;90.24
76102;SHT30;64830;46.910;6.354;2023-11-19T15:03:16;11.70;90.37
76102;SHT30;64830;46.910;6.354;2023-11-19T15:05:45;11.66;90.31
76102;SHT30;64830;46.910;6.354;2023-11-19T15:08:11;11.65;90.31
76102;SHT30;64830;46.910;6.354;2023-11-19T15:10:36;11.63;90.45
76102;SHT30;64830;46.910;6.354;2023-11-19T15:13:03;11.61;90.38
76102;SHT30;64830;46.910;6.354;2023-11-19T15:15:29;11.63;90.44
76102;SHT30;64830;46.910;6.354;2023-11-19T15:17:54;11.56;90.57
76102;SHT30;64830;46.910;6.354;2023-11-19T15:20:20;11.55;90.73
76102;SHT30;64830;46.910;6.354;2023-11-19T15:22:46;11.51;90.75
76102;SHT30;64830;46.910;6.354;2023-11-19T15:25:12;11.49;90.76
76102;SHT30;64830;46.910;6.354;2023-11-19T15:27:38;11.49;90.72
76102;SHT30;64830;46.910;6.354;2023-11-19T15:30:04;11.49;90.88
76102;SHT30;64830;46.910;6.354;2023-11-19T15:32:30;11.47;90.99
76102;SHT30;64830;46.910;6.354;2023-11-19T15:35:00;11.47;90.94
76102;SHT30;64830;46.910;6.354;2023-11-19T15:37:25;11.46;90.84
76102;SHT30;64830;46.910;6.354;2023-11-19T15:39:50;11.43;90.85
76102;SHT30;64830;46.910;6.354;2023-11-19T15:42:17;11.45;90.84
76102;SHT30;64830;46.910;6.354;2023-11-19T15:44:42;11.45;90.79
76102;SHT30;64830;46.910;6.354;2023-11-19T15:47:08;11.46;90.84